Time;durP1;ratioP1;P1;durP2;ratioP2;P2;SDS_P1;SDS_P2;PMS_P1;PMS_P2;Temp;Humidity;BMP_temperature;BMP_pressure;BME280_temperature;BME280_humidity;BME280_pressure;Samples;Min_cycle;Max_cycle;Signal;HPM_P1;HPM_P2
2022/02/19 00:00:46;;;;;;;14.63;3.33;;;8.30;71.20;;;;;;2103777;28;20087;-70
2022/02/19 00:01:46;;;;;;;13.55;3.45;;;8.30;71.60;;;;;;2102831;28;20024;-70
2022/02/19 00:02:47;;;;;;;9.98;3.20;;;8.30;72.40;;;;;;2100263;28;20104;-71
2022/02/19 00:03:48;;;;;;;10.73;3.25;;;8.30;73.60;;;;;;2102798;28;20032;-71
2022/02/19 00:04:49;;;;;;;10.30;3.28;;;8.30;75.10;;;;;;2106158;28;20077;-71
2022/02/19 00:05:49;;;;;;;11.35;3.65;;;8.30;76.40;;;;;;2104432;28;20032;-71
2022/02/19 00:06:50;;;;;;;14.25;3.72;;;8.20;77.40;;;;;;2105049;28;20024;-71
2022/02/19 00:07:51;;;;;;;13.32;3.67;;;8.20;78.30;;;;;;2105457;28;20418;-71
2022/02/19 00:08:52;;;;;;;9.77;2.95;;;8.20;79.10;;;;;;2106424;28;20650;-71
2022/02/19 00:09:52;;;;;;;15.02;3.17;;;8.20;80.30;;;;;;2103017;28;20602;-71
2022/02/19 00:10:53;;;;;;;10.57;3.40;;;8.20;81.30;;;;;;2105323;28;20454;-71
2022/02/19 00:11:53;;;;;;;11.73;3.00;;;8.10;82.10;;;;;;2109012;28;20028;-71
2022/02/19 00:12:54;;;;;;;10.38;2.90;;;8.20;82.60;;;;;;2108487;28;20381;-71
2022/02/19 00:13:55;;;;;;;14.25;3.35;;;8.10;83.80;;;;;;2106323;28;20749;-71
2022/02/19 00:14:56;;;;;;;11.25;3.35;;;8.10;84.10;;;;;;2103370;28;20024;-70
2022/02/19 00:15:56;;;;;;;15.88;3.42;;;8.10;84.70;;;;;;2098684;28;20028;-71
2022/02/19 00:16:57;;;;;;;13.93;3.50;;;8.10;85.40;;;;;;2102731;28;20021;-71
2022/02/19 00:17:58;;;;;;;12.18;3.33;;;8.10;85.80;;;;;;2096816;28;20032;-71
2022/02/19 00:18:58;;;;;;;8.45;3.22;;;8.00;86.70;;;;;;2104272;28;20152;-70
2022/02/19 00:20:00;;;;;;;11.40;3.25;;;8.00;86.70;;;;;;2105173;28;20064;-71
2022/02/19 00:21:02;;;;;;;16.23;3.80;;;8.00;86.40;;;;;;2102467;28;20085;-70
2022/02/19 00:22:05;;;;;;;13.65;3.42;;;8.00;86.80;;;;;;2108389;28;20114;-71
2022/02/19 00:23:06;;;;;;;10.43;3.20;;;8.00;86.60;;;;;;2102772;28;20073;-70
2022/02/19 00:24:07;;;;;;;11.57;3.47;;;8.00;86.40;;;;;;2104493;28;20047;-70
2022/02/19 00:25:09;;;;;;;13.07;3.85;;;7.90;86.70;;;;;;2101654;28;20032;-71
2022/02/19 00:26:09;;;;;;;13.82;3.55;;;7.90;86.90;;;;;;2101997;28;20353;-71
2022/02/19 00:27:11;;;;;;;14.63;4.10;;;7.90;86.70;;;;;;2106259;28;20121;-71
2022/02/19 00:28:11;;;;;;;14.27;3.22;;;7.90;87.20;;;;;;2097806;28;20020;-70
2022/02/19 00:29:12;;;;;;;15.27;2.95;;;7.90;87.30;;;;;;2104174;28;20082;-70
2022/02/19 00:30:12;;;;;;;9.48;2.85;;;7.80;87.20;;;;;;2107506;28;20028;-71
2022/02/19 00:31:13;;;;;;;12.07;3.30;;;7.80;87.60;;;;;;2104507;28;20032;-70
2022/02/19 00:32:13;;;;;;;10.05;3.20;;;7.80;87.60;;;;;;2106580;28;20036;-71
2022/02/19 00:33:14;;;;;;;11.85;3.50;;;7.80;87.90;;;;;;2104497;28;20081;-71
2022/02/19 00:34:15;;;;;;;12.43;3.03;;;7.80;87.30;;;;;;2106987;28;20121;-71
2022/02/19 00:35:16;;;;;;;12.30;3.65;;;7.70;87.10;;;;;;2109201;28;20020;-70
2022/02/19 00:36:16;;;;;;;14.88;3.30;;;7.80;87.30;;;;;;2103731;28;20035;-70
2022/02/19 00:37:17;;;;;;;12.40;3.55;;;7.70;87.80;;;;;;2102005;28;20057;-71
2022/02/19 00:38:18;;;;;;;13.07;3.30;;;7.70;87.10;;;;;;2107196;28;20580;-71
2022/02/19 00:39:19;;;;;;;11.88;3.10;;;7.70;86.60;;;;;;2104466;28;20023;-71
2022/02/19 00:40:19;;;;;;;13.23;3.22;;;7.70;86.40;;;;;;2099267;28;20048;-70
2022/02/19 00:41:20;;;;;;;13.63;3.13;;;7.70;86.00;;;;;;2101053;28;20070;-71
2022/02/19 00:42:21;;;;;;;12.55;3.40;;;7.70;85.80;;;;;;2100541;28;20031;-70
2022/02/19 00:43:22;;;;;;;12.70;2.90;;;7.70;85.40;;;;;;2108474;28;20418;-71
2022/02/19 00:44:24;;;;;;;12.00;2.97;;;7.70;85.70;;;;;;2106460;28;20016;-70
2022/02/19 00:45:24;;;;;;;8.50;2.80;;;7.70;85.20;;;;;;2106472;28;20015;-70
2022/02/19 00:46:25;;;;;;;9.02;2.90;;;7.70;85.50;;;;;;2105059;28;20711;-70
2022/02/19 00:47:26;;;;;;;11.48;3.13;;;7.70;85.30;;;;;;2104453;28;20128;-70
2022/02/19 00:48:26;;;;;;;8.88;2.65;;;7.70;85.20;;;;;;2102112;28;20361;-71
2022/02/19 00:49:27;;;;;;;14.25;3.53;;;7.70;85.00;;;;;;2101139;28;20016;-70
2022/02/19 00:50:27;;;;;;;14.15;3.90;;;7.60;84.80;;;;;;2101333;28;20023;-70
2022/02/19 00:51:29;;;;;;;8.43;2.70;;;7.70;84.80;;;;;;2104639;28;20072;-70
2022/02/19 00:52:29;;;;;;;8.27;2.80;;;7.70;84.60;;;;;;2105857;28;20031;-71
2022/02/19 00:53:30;;;;;;;12.25;2.92;;;7.60;84.00;;;;;;2104397;28;20093;-70
2022/02/19 00:54:30;;;;;;;12.75;2.90;;;7.60;83.90;;;;;;2106932;28;20030;-70
2022/02/19 00:55:31;;;;;;;15.95;3.60;;;7.60;84.00;;;;;;2103649;28;20360;-71
2022/02/19 00:56:31;;;;;;;9.32;2.90;;;7.60;84.20;;;;;;2105282;28;20019;-70
2022/02/19 00:57:32;;;;;;;13.07;3.05;;;7.60;84.00;;;;;;2102202;28;20052;-71
2022/02/19 00:58:33;;;;;;;12.60;3.15;;;7.60;83.80;;;;;;2108682;28;20538;-70
2022/02/19 00:59:33;;;;;;;10.60;3.25;;;7.60;83.70;;;;;;2107138;28;20028;-71
2022/02/19 01:00:34;;;;;;;9.48;2.60;;;7.60;83.80;;;;;;2106416;28;20045;-71
2022/02/19 01:01:37;;;;;;;10.60;3.13;;;7.60;83.90;;;;;;2104618;28;20023;-70
2022/02/19 01:02:37;;;;;;;12.40;3.08;;;7.60;84.20;;;;;;2102078;28;20551;-70
2022/02/19 01:03:38;;;;;;;7.93;2.53;;;7.60;84.20;;;;;;2102257;28;20388;-71
2022/02/19 01:04:39;;;;;;;11.15;3.15;;;7.60;84.10;;;;;;2102529;28;20115;-71
2022/02/19 01:05:40;;;;;;;12.02;3.00;;;7.60;84.00;;;;;;2101424;28;20024;-70
2022/02/19 01:06:40;;;;;;;11.80;3.25;;;7.60;84.10;;;;;;2106929;28;20024;-71
2022/02/19 01:07:41;;;;;;;16.30;3.38;;;7.60;84.40;;;;;;2101804;28;20043;-70
2022/02/19 01:08:42;;;;;;;7.55;2.80;;;7.60;83.90;;;;;;2100766;28;20024;-70
2022/02/19 01:09:42;;;;;;;12.27;3.35;;;7.60;84.00;;;;;;2097514;28;20029;-70
2022/02/19 01:10:43;;;;;;;10.07;3.40;;;7.60;83.60;;;;;;2104296;28;20144;-71
2022/02/19 01:11:43;;;;;;;9.98;3.28;;;7.60;83.30;;;;;;2103550;28;20051;-70
2022/02/19 01:12:44;;;;;;;19.60;3.20;;;7.60;83.00;;;;;;2103900;28;20609;-70
2022/02/19 01:13:46;;;;;;;11.70;2.70;;;7.60;83.20;;;;;;2101248;28;20042;-70
2022/02/19 01:14:47;;;;;;;8.02;2.83;;;7.60;83.00;;;;;;2101955;28;20032;-70
2022/02/19 01:15:48;;;;;;;10.60;3.10;;;7.60;83.00;;;;;;2100130;28;20468;-70
2022/02/19 01:16:48;;;;;;;10.75;3.03;;;7.60;83.10;;;;;;2107190;28;20028;-70
2022/02/19 01:17:49;;;;;;;10.95;2.85;;;7.60;83.40;;;;;;2106075;28;20056;-70
2022/02/19 01:18:50;;;;;;;13.05;3.03;;;7.60;83.40;;;;;;2104512;28;20024;-71
2022/02/19 01:19:50;;;;;;;7.75;3.03;;;7.60;83.70;;;;;;2101454;28;20043;-70
2022/02/19 01:20:53;;;;;;;9.73;3.13;;;7.60;83.20;;;;;;2101559;28;20388;-70
2022/02/19 01:21:54;;;;;;;7.85;2.22;;;7.60;83.10;;;;;;2104404;28;20119;-71
2022/02/19 01:22:54;;;;;;;9.15;2.50;;;7.60;82.00;;;;;;2103055;28;20032;-71
2022/02/19 01:23:55;;;;;;;10.85;2.83;;;7.60;81.80;;;;;;2103340;28;20040;-70
2022/02/19 01:24:55;;;;;;;11.82;2.80;;;7.60;82.00;;;;;;2101922;28;20029;-71
2022/02/19 01:25:56;;;;;;;13.60;3.15;;;7.60;82.00;;;;;;2104980;28;20031;-71
2022/02/19 01:26:57;;;;;;;15.18;3.20;;;7.60;81.80;;;;;;2106940;28;20063;-70
2022/02/19 01:27:57;;;;;;;13.50;3.00;;;7.60;81.80;;;;;;2102707;28;20099;-71
2022/02/19 01:28:58;;;;;;;8.85;2.22;;;7.60;82.10;;;;;;2101624;28;20050;-71
2022/02/19 01:29:58;;;;;;;16.08;3.33;;;7.60;81.60;;;;;;2103803;28;20089;-70
2022/02/19 01:30:59;;;;;;;12.93;3.60;;;7.60;81.50;;;;;;2107339;28;20024;-70
2022/02/19 01:31:59;;;;;;;8.07;2.60;;;7.60;81.60;;;;;;2104127;28;20028;-71
2022/02/19 01:33:00;;;;;;;8.65;2.60;;;7.60;81.40;;;;;;2101656;28;20032;-70
2022/02/19 01:34:01;;;;;;;8.25;2.30;;;7.60;81.00;;;;;;2106895;28;20028;-70
2022/02/19 01:35:01;;;;;;;11.45;2.80;;;7.60;81.10;;;;;;2104543;28;20028;-71
2022/02/19 01:36:03;;;;;;;13.13;2.25;;;7.60;81.10;;;;;;2101021;28;20024;-70
2022/02/19 01:37:04;;;;;;;17.40;2.97;;;7.60;81.30;;;;;;2105275;28;20102;-70
2022/02/19 01:38:04;;;;;;;11.25;3.10;;;7.60;81.10;;;;;;2105203;28;20500;-71
2022/02/19 01:39:05;;;;;;;10.13;2.65;;;7.60;81.10;;;;;;2108179;28;20413;-70
2022/02/19 01:40:06;;;;;;;10.15;3.05;;;7.60;81.30;;;;;;2107212;28;20016;-70
2022/02/19 01:41:07;;;;;;;9.68;2.80;;;7.60;81.30;;;;;;2104626;28;20350;-70
2022/02/19 01:42:07;;;;;;;13.18;2.78;;;7.60;81.30;;;;;;2100377;28;20105;-71
2022/02/19 01:43:10;;;;;;;12.38;2.88;;;7.60;81.40;;;;;;2105980;28;20099;-70
2022/02/19 01:44:12;;;;;;;12.27;3.58;;;7.60;81.30;;;;;;2105625;28;20052;-70
2022/02/19 01:45:14;;;;;;;6.85;2.60;;;7.60;81.30;;;;;;2104946;28;20028;-70
2022/02/19 01:46:15;;;;;;;11.73;3.38;;;7.60;81.30;;;;;;2109187;28;20039;-71
2022/02/19 01:47:16;;;;;;;11.23;2.72;;;7.70;81.60;;;;;;2109578;28;20031;-71
2022/02/19 01:48:19;;;;;;;12.95;3.00;;;7.60;81.10;;;;;;2105612;28;20020;-70
2022/02/19 01:49:19;;;;;;;13.23;3.40;;;7.60;81.00;;;;;;2101928;28;20032;-71
2022/02/19 01:50:20;;;;;;;10.65;2.80;;;7.60;81.00;;;;;;2102866;28;20115;-71
2022/02/19 01:51:21;;;;;;;11.00;2.50;;;7.60;80.90;;;;;;2106927;28;20023;-70
2022/02/19 01:52:23;;;;;;;11.23;2.38;;;7.60;81.00;;;;;;2106626;28;20468;-70
2022/02/19 01:53:23;;;;;;;9.75;2.72;;;7.60;80.60;;;;;;2106557;28;20020;-71
2022/02/19 01:54:24;;;;;;;11.45;2.45;;;7.60;81.20;;;;;;2106489;28;20459;-70
2022/02/19 01:55:25;;;;;;;11.90;2.80;;;7.60;80.90;;;;;;2105302;28;20123;-71
2022/02/19 01:56:26;;;;;;;12.70;2.92;;;7.60;81.00;;;;;;2108161;28;20016;-71
2022/02/19 01:57:26;;;;;;;12.25;2.90;;;7.60;81.10;;;;;;2108779;28;20054;-70
2022/02/19 01:58:27;;;;;;;11.65;2.55;;;7.60;81.40;;;;;;2108194;28;20023;-71
2022/02/19 01:59:28;;;;;;;7.40;2.40;;;7.60;81.50;;;;;;2105472;28;20020;-71
2022/02/19 02:00:29;;;;;;;10.20;2.70;;;7.60;81.00;;;;;;2103591;28;20105;-71
2022/02/19 02:01:30;;;;;;;12.48;2.83;;;7.60;80.90;;;;;;2106473;28;20031;-71
2022/02/19 02:02:30;;;;;;;10.35;2.80;;;7.60;81.20;;;;;;2103708;28;20765;-70
2022/02/19 02:03:31;;;;;;;8.20;2.30;;;7.60;81.10;;;;;;2100242;28;20025;-70
2022/02/19 02:04:33;;;;;;;11.07;2.97;;;7.60;81.20;;;;;;2107657;28;20102;-70
2022/02/19 02:05:37;;;;;;;8.25;2.50;;;7.60;81.50;;;;;;2106238;28;20012;-71
2022/02/19 02:06:42;;;;;;;12.00;2.55;;;7.60;81.50;;;;;;2107404;28;20022;-70
2022/02/19 02:07:42;;;;;;;12.15;2.83;;;7.60;81.30;;;;;;2107020;28;20016;-70
2022/02/19 02:08:43;;;;;;;8.90;2.50;;;7.60;81.30;;;;;;2106435;28;20720;-71
2022/02/19 02:09:43;;;;;;;11.43;2.75;;;7.60;81.50;;;;;;2110454;28;20047;-71
2022/02/19 02:10:44;;;;;;;11.15;3.05;;;7.60;81.80;;;;;;2107954;28;20035;-71
2022/02/19 02:11:45;;;;;;;9.88;3.00;;;7.60;81.80;;;;;;2107737;28;20016;-71
2022/02/19 02:12:46;;;;;;;7.55;2.30;;;7.60;81.70;;;;;;2106649;28;20032;-70
2022/02/19 02:13:47;;;;;;;11.30;2.63;;;7.60;82.00;;;;;;2106271;28;20024;-71
2022/02/19 02:14:47;;;;;;;12.65;2.70;;;7.60;81.90;;;;;;2103755;28;20027;-71
2022/02/19 02:15:52;;;;;;;10.65;3.00;;;7.60;82.10;;;;;;2103911;28;20055;-70
2022/02/19 02:16:52;;;;;;;9.55;2.53;;;7.60;81.90;;;;;;2105638;28;20407;-70
2022/02/19 02:17:53;;;;;;;7.38;2.45;;;7.60;82.00;;;;;;2106554;28;20083;-71
2022/02/19 02:18:53;;;;;;;11.13;2.67;;;7.60;82.30;;;;;;2105823;28;20024;-71
2022/02/19 02:19:54;;;;;;;13.30;3.50;;;7.60;82.20;;;;;;2105659;28;20027;-70
2022/02/19 02:20:54;;;;;;;12.18;3.33;;;7.60;82.40;;;;;;2107086;28;20020;-71
2022/02/19 02:21:55;;;;;;;8.32;2.83;;;7.60;82.40;;;;;;2108046;28;20036;-71
2022/02/19 02:22:57;;;;;;;10.82;3.30;;;7.60;82.50;;;;;;2107798;28;20028;-71
2022/02/19 02:23:57;;;;;;;7.70;2.97;;;7.60;82.60;;;;;;2106507;28;20028;-71
2022/02/19 02:24:58;;;;;;;11.82;3.10;;;7.60;82.60;;;;;;2103337;28;20024;-70
2022/02/19 02:26:01;;;;;;;11.50;3.38;;;7.60;83.00;;;;;;2109405;28;20034;-71
2022/02/19 02:27:04;;;;;;;11.40;2.22;;;7.60;82.70;;;;;;2108723;28;20517;-71
2022/02/19 02:28:09;;;;;;;9.00;2.83;;;7.60;83.00;;;;;;2107611;28;20036;-71
2022/02/19 02:29:10;;;;;;;10.13;2.78;;;7.60;83.10;;;;;;2106651;28;20059;-71
2022/02/19 02:30:11;;;;;;;8.93;2.88;;;7.60;83.00;;;;;;2104918;28;20027;-71
2022/02/19 02:31:11;;;;;;;13.75;2.85;;;7.60;83.30;;;;;;2101186;28;20058;-71
2022/02/19 02:32:13;;;;;;;12.07;2.83;;;7.50;83.20;;;;;;2106885;28;20032;-70
2022/02/19 02:33:17;;;;;;;8.88;2.55;;;7.60;83.00;;;;;;2108834;28;20119;-70
2022/02/19 02:34:19;;;;;;;15.93;3.10;;;7.60;83.10;;;;;;2110192;28;20062;-70
2022/02/19 02:35:19;;;;;;;8.45;2.42;;;7.60;83.40;;;;;;2106985;28;20069;-70
2022/02/19 02:36:20;;;;;;;9.40;2.67;;;7.60;83.20;;;;;;2103514;28;20081;-71
2022/02/19 02:37:22;;;;;;;11.73;2.67;;;7.60;83.10;;;;;;2104671;28;20016;-70
2022/02/19 02:38:22;;;;;;;9.82;2.55;;;7.60;83.00;;;;;;2107162;28;20449;-71
2022/02/19 02:39:23;;;;;;;7.47;2.35;;;7.60;83.10;;;;;;2103969;28;20020;-70
2022/02/19 02:40:23;;;;;;;11.05;3.08;;;7.60;83.10;;;;;;2106728;28;20066;-70
2022/02/19 02:41:24;;;;;;;11.25;3.25;;;7.60;83.10;;;;;;2106188;28;20502;-70
2022/02/19 02:42:25;;;;;;;9.20;3.10;;;7.60;83.30;;;;;;2108843;28;20043;-70
2022/02/19 02:43:26;;;;;;;11.02;2.83;;;7.60;83.30;;;;;;2109099;28;20024;-71
2022/02/19 02:44:26;;;;;;;10.43;2.80;;;7.60;83.00;;;;;;2103551;28;20161;-70
2022/02/19 02:45:27;;;;;;;8.95;2.50;;;7.50;83.30;;;;;;2104158;28;20850;-70
2022/02/19 02:46:28;;;;;;;10.63;2.53;;;7.60;83.30;;;;;;2106162;28;20473;-70
2022/02/19 02:47:28;;;;;;;9.73;2.75;;;7.60;83.20;;;;;;2103821;28;20058;-71
2022/02/19 02:48:29;;;;;;;13.80;3.30;;;7.60;83.10;;;;;;2102239;28;20016;-70
2022/02/19 02:49:30;;;;;;;10.05;2.65;;;7.50;82.90;;;;;;2102808;28;20020;-70
2022/02/19 02:50:31;;;;;;;13.77;2.08;;;7.60;83.20;;;;;;2102609;28;20076;-71
2022/02/19 02:51:31;;;;;;;9.10;2.33;;;7.60;82.80;;;;;;2106265;28;20056;-71
2022/02/19 02:52:32;;;;;;;9.98;2.92;;;7.60;82.60;;;;;;2105588;28;20019;-70
2022/02/19 02:53:34;;;;;;;8.63;2.55;;;7.60;82.70;;;;;;2108053;28;20494;-71
2022/02/19 02:54:34;;;;;;;9.43;2.50;;;7.60;82.20;;;;;;2104999;28;20499;-70
2022/02/19 02:55:35;;;;;;;8.30;2.15;;;7.60;82.20;;;;;;2103406;28;20462;-70
2022/02/19 02:56:36;;;;;;;9.02;2.88;;;7.60;82.50;;;;;;2104130;28;20027;-70
2022/02/19 02:57:36;;;;;;;12.60;2.85;;;7.60;82.10;;;;;;2103824;28;20456;-70
2022/02/19 02:58:37;;;;;;;12.35;2.40;;;7.60;81.80;;;;;;2108469;28;20055;-70
2022/02/19 02:59:38;;;;;;;6.97;2.10;;;7.60;81.80;;;;;;2108665;28;20755;-70
2022/02/19 03:00:38;;;;;;;8.32;2.50;;;7.60;81.90;;;;;;2106489;28;20020;-70
2022/02/19 03:01:39;;;;;;;11.95;2.72;;;7.60;81.80;;;;;;2107519;28;20031;-70
2022/02/19 03:02:40;;;;;;;10.25;3.08;;;7.60;82.00;;;;;;2098500;28;20337;-70
2022/02/19 03:03:41;;;;;;;8.25;2.47;;;7.60;82.50;;;;;;2105613;28;20031;-70
2022/02/19 03:04:41;;;;;;;11.75;2.60;;;7.60;82.90;;;;;;2103939;28;20028;-70
2022/02/19 03:05:42;;;;;;;7.45;2.42;;;7.60;84.00;;;;;;2104910;28;20024;-70
2022/02/19 03:06:43;;;;;;;11.27;2.67;;;7.60;83.50;;;;;;2108405;28;20020;-71
2022/02/19 03:07:43;;;;;;;9.02;2.45;;;7.60;83.10;;;;;;2107772;28;20101;-70
2022/02/19 03:08:44;;;;;;;9.23;2.80;;;7.60;83.50;;;;;;2106708;28;20467;-71
2022/02/19 03:09:44;;;;;;;10.25;2.53;;;7.60;83.60;;;;;;2105660;28;20032;-70
2022/02/19 03:10:45;;;;;;;8.75;2.70;;;7.60;83.20;;;;;;2101524;28;20372;-70
2022/02/19 03:11:45;;;;;;;9.38;2.08;;;7.60;83.20;;;;;;2104723;28;20102;-70
2022/02/19 03:12:46;;;;;;;9.10;2.40;;;7.60;83.00;;;;;;2103541;28;20447;-70
2022/02/19 03:13:47;;;;;;;10.07;2.60;;;7.60;82.50;;;;;;2103478;28;20021;-70
2022/02/19 03:14:48;;;;;;;9.38;2.47;;;7.60;82.40;;;;;;2107731;28;20052;-70
2022/02/19 03:15:48;;;;;;;11.45;3.22;;;7.60;82.50;;;;;;2099700;28;20725;-70
2022/02/19 03:16:49;;;;;;;10.57;3.05;;;7.60;82.80;;;;;;2105787;28;20099;-70
2022/02/19 03:17:49;;;;;;;9.18;2.53;;;7.60;83.00;;;;;;2101688;28;20043;-70
2022/02/19 03:18:50;;;;;;;9.23;2.13;;;7.60;83.20;;;;;;2104596;28;20119;-70
2022/02/19 03:19:50;;;;;;;13.05;2.67;;;7.60;83.50;;;;;;2102429;28;20036;-70
2022/02/19 03:20:51;;;;;;;12.75;2.80;;;7.60;83.80;;;;;;2110278;28;20028;-71
2022/02/19 03:21:52;;;;;;;11.60;2.28;;;7.60;84.70;;;;;;2108854;28;20028;-71
2022/02/19 03:22:52;;;;;;;8.52;2.40;;;7.50;85.60;;;;;;2104108;28;20444;-71
2022/02/19 03:23:53;;;;;;;8.88;2.20;;;7.50;85.80;;;;;;2104372;28;20081;-70
2022/02/19 03:24:53;;;;;;;5.50;2.13;;;7.50;86.50;;;;;;2107885;28;20024;-70
2022/02/19 03:25:54;;;;;;;6.82;1.98;;;7.50;86.90;;;;;;2104527;28;20046;-71
2022/02/19 03:26:54;;;;;;;6.78;1.75;;;7.50;88.00;;;;;;2107020;28;20105;-70
2022/02/19 03:27:55;;;;;;;8.02;1.75;;;7.50;90.00;;;;;;2102210;28;20056;-70
2022/02/19 03:28:56;;;;;;;8.40;2.40;;;7.50;90.80;;;;;;2102052;28;20031;-70
2022/02/19 03:29:56;;;;;;;10.48;2.38;;;7.40;92.00;;;;;;2108352;28;20027;-70
2022/02/19 03:30:57;;;;;;;8.15;2.60;;;7.40;92.40;;;;;;2107066;28;20032;-70
2022/02/19 03:31:58;;;;;;;11.52;2.60;;;7.30;93.00;;;;;;2102395;28;20024;-70
2022/02/19 03:32:58;;;;;;;5.90;2.17;;;7.30;93.70;;;;;;2106427;28;20036;-70
2022/02/19 03:33:59;;;;;;;4.75;2.03;;;7.20;93.90;;;;;;2107222;28;20024;-71
2022/02/19 03:34:59;;;;;;;15.50;2.72;;;7.20;94.20;;;;;;2106738;28;20031;-71
2022/02/19 03:36:00;;;;;;;9.00;2.30;;;7.20;94.20;;;;;;2102153;28;20032;-70
2022/02/19 03:37:01;;;;;;;11.43;2.40;;;7.10;94.40;;;;;;2101988;28;20036;-70
2022/02/19 03:38:01;;;;;;;9.75;2.58;;;7.10;94.70;;;;;;2106779;28;20067;-70
2022/02/19 03:39:02;;;;;;;15.10;3.17;;;7.10;94.60;;;;;;2107281;28;20028;-70
2022/02/19 03:40:06;;;;;;;6.78;2.53;;;7.10;94.80;;;;;;2108419;28;20456;-70
2022/02/19 03:41:07;;;;;;;12.20;2.72;;;7.20;94.90;;;;;;2104966;28;20491;-70
2022/02/19 03:42:07;;;;;;;11.13;2.38;;;7.10;94.90;;;;;;2106738;28;20621;-70
2022/02/19 03:43:08;;;;;;;9.85;2.88;;;7.10;94.90;;;;;;2105557;28;20403;-70
2022/02/19 03:44:09;;;;;;;11.80;3.03;;;7.10;94.90;;;;;;2101528;28;20033;-70
2022/02/19 03:45:12;;;;;;;8.25;2.88;;;7.10;95.00;;;;;;2106178;28;20039;-70
2022/02/19 03:46:13;;;;;;;12.40;2.85;;;7.10;95.30;;;;;;2109384;28;20380;-70
2022/02/19 03:47:13;;;;;;;13.65;3.10;;;7.10;94.90;;;;;;2106796;28;20021;-70
2022/02/19 03:48:14;;;;;;;8.07;2.42;;;7.10;94.90;;;;;;2106003;28;20028;-70
2022/02/19 03:49:14;;;;;;;9.02;2.42;;;7.20;95.10;;;;;;2103396;28;20036;-70
2022/02/19 03:50:17;;;;;;;9.52;2.10;;;7.20;95.00;;;;;;2106204;28;20036;-70
2022/02/19 03:51:18;;;;;;;11.80;3.08;;;7.20;94.80;;;;;;2105290;28;20162;-70
2022/02/19 03:52:18;;;;;;;10.63;2.90;;;7.20;94.70;;;;;;2102951;28;20090;-71
2022/02/19 03:53:19;;;;;;;8.88;2.28;;;7.20;94.60;;;;;;2108043;28;20032;-71
2022/02/19 03:54:19;;;;;;;8.90;2.83;;;7.20;94.30;;;;;;2108614;28;20538;-70
2022/02/19 03:55:20;;;;;;;10.13;3.22;;;7.20;94.20;;;;;;2106292;28;20433;-70
2022/02/19 03:56:21;;;;;;;9.40;2.30;;;7.20;93.90;;;;;;2106639;28;20027;-70
2022/02/19 03:57:21;;;;;;;9.57;3.22;;;7.20;93.70;;;;;;2101870;28;20028;-70
2022/02/19 03:58:22;;;;;;;8.35;2.50;;;7.20;93.60;;;;;;2106663;28;20057;-70
2022/02/19 03:59:22;;;;;;;7.57;2.20;;;7.20;93.50;;;;;;2103496;28;20448;-71
2022/02/19 04:00:23;;;;;;;11.48;2.83;;;7.20;93.30;;;;;;2105754;28;20034;-70
2022/02/19 04:01:23;;;;;;;8.93;2.30;;;7.20;93.20;;;;;;2106138;28;20020;-70
2022/02/19 04:02:24;;;;;;;9.35;2.33;;;7.20;92.90;;;;;;2100904;28;20047;-70
2022/02/19 04:03:24;;;;;;;15.82;2.63;;;7.20;92.90;;;;;;2107712;28;20027;-70
2022/02/19 04:04:25;;;;;;;8.82;2.30;;;7.20;92.90;;;;;;2105209;28;20019;-70
2022/02/19 04:05:25;;;;;;;10.88;2.58;;;7.20;92.90;;;;;;2103674;28;20103;-70
2022/02/19 04:06:26;;;;;;;14.57;3.13;;;7.20;92.80;;;;;;2102470;28;20484;-70
2022/02/19 04:07:27;;;;;;;9.40;2.30;;;7.20;92.60;;;;;;2105218;28;20024;-70
2022/02/19 04:08:27;;;;;;;10.98;2.80;;;7.20;92.50;;;;;;2104931;28;20016;-70
2022/02/19 04:09:28;;;;;;;9.73;2.80;;;7.20;92.50;;;;;;2105744;28;20020;-71
2022/02/19 04:10:28;;;;;;;7.88;2.53;;;7.20;92.60;;;;;;2103942;28;20017;-70
2022/02/19 04:11:29;;;;;;;7.07;2.33;;;7.20;92.70;;;;;;2103863;28;20028;-70
2022/02/19 04:12:29;;;;;;;8.27;3.03;;;7.20;92.60;;;;;;2107067;28;20020;-71
2022/02/19 04:13:30;;;;;;;12.65;2.58;;;7.20;92.70;;;;;;2105201;28;20051;-71
2022/02/19 04:14:30;;;;;;;6.35;2.17;;;7.20;92.70;;;;;;2106215;28;20093;-70
2022/02/19 04:15:31;;;;;;;8.55;2.78;;;7.20;92.50;;;;;;2101864;28;20020;-70
2022/02/19 04:16:32;;;;;;;10.05;2.33;;;7.20;92.50;;;;;;2101879;28;20024;-70
2022/02/19 04:17:32;;;;;;;9.43;2.67;;;7.20;92.50;;;;;;2105673;28;20747;-70
2022/02/19 04:18:33;;;;;;;9.52;2.50;;;7.20;92.30;;;;;;2100108;28;20078;-70
2022/02/19 04:19:33;;;;;;;8.25;2.30;;;7.30;92.10;;;;;;2102935;28;20021;-71
2022/02/19 04:20:34;;;;;;;7.63;2.15;;;7.30;92.10;;;;;;2103412;28;20031;-70
2022/02/19 04:21:34;;;;;;;7.53;2.15;;;7.30;92.00;;;;;;2103367;28;20414;-70
2022/02/19 04:22:35;;;;;;;12.38;2.97;;;7.30;91.90;;;;;;2101649;28;20590;-70
2022/02/19 04:23:36;;;;;;;11.02;2.65;;;7.30;92.00;;;;;;2104714;28;20032;-70
2022/02/19 04:24:36;;;;;;;7.22;2.17;;;7.30;92.10;;;;;;2105067;28;20020;-70
2022/02/19 04:25:37;;;;;;;12.88;2.88;;;7.20;92.00;;;;;;2105541;28;20051;-70
2022/02/19 04:26:38;;;;;;;6.55;2.45;;;7.30;92.00;;;;;;2106542;28;20012;-70
2022/02/19 04:27:40;;;;;;;7.53;2.33;;;7.30;91.90;;;;;;2107735;28;20019;-70
2022/02/19 04:28:40;;;;;;;9.02;2.53;;;7.30;91.80;;;;;;2102841;28;20049;-70
2022/02/19 04:29:41;;;;;;;10.15;2.60;;;7.30;91.80;;;;;;2104104;28;20031;-71
2022/02/19 04:30:41;;;;;;;13.35;2.83;;;7.30;91.70;;;;;;2104191;28;20016;-70
2022/02/19 04:31:42;;;;;;;10.43;2.78;;;7.20;91.70;;;;;;2101256;28;20062;-70
2022/02/19 04:32:43;;;;;;;9.02;2.72;;;7.30;91.70;;;;;;2106966;28;20070;-70
2022/02/19 04:33:43;;;;;;;5.38;2.05;;;7.20;91.80;;;;;;2108526;28;20501;-70
2022/02/19 04:34:44;;;;;;;9.02;2.60;;;7.30;91.80;;;;;;2106353;28;20578;-70
2022/02/19 04:35:48;;;;;;;9.15;2.20;;;7.30;91.70;;;;;;2106602;28;20051;-70
2022/02/19 04:36:48;;;;;;;9.98;2.78;;;7.30;91.80;;;;;;2105546;28;20526;-71
2022/02/19 04:37:49;;;;;;;9.10;2.80;;;7.30;91.90;;;;;;2103967;28;20414;-70
2022/02/19 04:38:49;;;;;;;11.23;2.35;;;7.30;91.90;;;;;;2102784;28;20078;-70
2022/02/19 04:39:50;;;;;;;9.90;2.67;;;7.20;91.80;;;;;;2108697;28;20035;-70
2022/02/19 04:40:51;;;;;;;13.63;2.65;;;7.20;91.90;;;;;;2107990;28;20089;-70
2022/02/19 04:41:52;;;;;;;12.73;3.38;;;7.20;91.80;;;;;;2105699;28;20154;-70
2022/02/19 04:42:52;;;;;;;5.38;1.98;;;7.20;91.80;;;;;;2107576;28;20089;-70
2022/02/19 04:43:53;;;;;;;11.55;2.75;;;7.20;91.90;;;;;;2105496;28;20101;-70
2022/02/19 04:44:53;;;;;;;8.52;2.65;;;7.30;92.00;;;;;;2106291;28;20546;-70
2022/02/19 04:45:54;;;;;;;11.18;2.97;;;7.30;92.00;;;;;;2102952;28;20535;-70
2022/02/19 04:46:55;;;;;;;9.32;2.22;;;7.30;91.80;;;;;;2101925;28;20029;-70
2022/02/19 04:47:55;;;;;;;9.38;3.22;;;7.30;91.40;;;;;;2108830;28;20048;-70
2022/02/19 04:48:56;;;;;;;11.02;2.28;;;7.30;91.40;;;;;;2099446;28;20186;-71
2022/02/19 04:49:56;;;;;;;10.43;2.65;;;7.30;91.00;;;;;;2103877;28;20460;-70
2022/02/19 04:50:57;;;;;;;9.48;2.17;;;7.30;91.20;;;;;;2104847;28;20032;-70
2022/02/19 04:51:57;;;;;;;8.10;2.13;;;7.30;91.20;;;;;;2105610;28;20024;-70
2022/02/19 04:52:58;;;;;;;11.68;3.00;;;7.30;91.00;;;;;;2103094;28;20035;-70
2022/02/19 04:53:59;;;;;;;9.00;2.40;;;7.30;91.00;;;;;;2098824;28;20029;-70
2022/02/19 04:55:00;;;;;;;9.07;2.60;;;7.30;91.00;;;;;;2105887;28;20119;-71
2022/02/19 04:56:00;;;;;;;7.25;2.28;;;7.30;91.00;;;;;;2108907;28;20119;-70
2022/02/19 04:57:01;;;;;;;6.13;2.58;;;7.30;91.00;;;;;;2107966;28;20024;-70
2022/02/19 04:58:02;;;;;;;8.85;2.30;;;7.30;91.10;;;;;;2107963;28;20677;-70
2022/02/19 04:59:04;;;;;;;7.50;2.30;;;7.30;90.90;;;;;;2105995;28;20031;-70
2022/02/19 05:00:06;;;;;;;11.32;2.65;;;7.30;91.00;;;;;;2104572;28;20487;-70
2022/02/19 05:01:06;;;;;;;12.70;2.47;;;7.30;91.00;;;;;;2104964;28;20060;-70
2022/02/19 05:02:07;;;;;;;14.27;2.63;;;7.30;90.90;;;;;;2104753;28;20021;-70
2022/02/19 05:03:07;;;;;;;7.85;2.17;;;7.30;91.00;;;;;;2102639;28;20747;-70
2022/02/19 05:04:08;;;;;;;7.78;2.40;;;7.30;91.30;;;;;;2108302;28;20024;-70
2022/02/19 05:05:09;;;;;;;9.23;2.67;;;7.30;91.30;;;;;;2107566;28;20036;-71
2022/02/19 05:06:13;;;;;;;7.30;2.42;;;7.30;91.40;;;;;;2107938;28;20045;-70
2022/02/19 05:07:14;;;;;;;12.85;2.78;;;7.30;91.50;;;;;;2101762;28;20107;-70
2022/02/19 05:08:14;;;;;;;10.13;2.20;;;7.30;91.60;;;;;;2103768;28;20028;-70
2022/02/19 05:09:15;;;;;;;13.32;2.90;;;7.30;91.60;;;;;;2105021;28;20081;-70
2022/02/19 05:10:16;;;;;;;9.65;2.38;;;7.30;91.40;;;;;;2104667;28;20038;-70
2022/02/19 05:11:16;;;;;;;8.65;2.35;;;7.30;91.40;;;;;;2103074;28;20023;-70
2022/02/19 05:12:17;;;;;;;14.80;2.70;;;7.30;91.20;;;;;;2107973;28;20199;-70
2022/02/19 05:13:17;;;;;;;7.43;2.67;;;7.30;91.20;;;;;;2106977;28;20082;-70
2022/02/19 05:14:18;;;;;;;11.00;2.35;;;7.30;91.10;;;;;;2105379;28;20023;-70
2022/02/19 05:15:18;;;;;;;14.45;2.90;;;7.30;91.20;;;;;;2101317;28;20075;-70
2022/02/19 05:16:19;;;;;;;11.52;2.55;;;7.30;91.00;;;;;;2101626;28;20027;-70
2022/02/19 05:17:20;;;;;;;12.75;3.50;;;7.30;90.70;;;;;;2102260;28;20088;-70
2022/02/19 05:18:20;;;;;;;7.25;2.17;;;7.20;90.60;;;;;;2100271;28;20028;-70